• Join FlightAware (Why Join?)
  • Login
  • US Flag 
03:14AM EDT


 

Airport Tracker/Info


-or-


 

Live Flight TrackerFlight Track Log ✈ N552SR ✈ 10-Jun-2013 ✈ KBDR - KSYR

Flight Track Log - Related Links

Times and Time Zones

All times are in EDT time to prevent confusion due to time zone crossing. See the N552SR flight status page for this flight to view local times or setup timezone preferences in your user account.

Time Position Orientation Groundspeed Altitude Reporting Facility
EDT Latitude Longitude Course Direction KTS MPH feet Rate Location/Type
10:43AM 41.2500 -73.0333 14° North 147 169 2,800  Level New York TRACON
10:44AM 41.3000 -73.0167 14° North 149 171 3,600 660 Climbing New York TRACON
10:45AM 41.3333 -73.0500 323° Northwest 155 178 4,200 600 Climbing New York TRACON
10:46AM 41.3500 -73.1000 294° West 157 181 4,800 300 Climbing New York TRACON
10:47AM 41.3833 -73.1333 323° Northwest 176 203 4,900 420 Climbing New York TRACON
10:48AM 41.4167 -73.1667 323° Northwest 162 186 5,700 660 Climbing New York TRACON
10:49AM 41.4456 -73.1961 323° Northwest 159 183 6,100 540 Climbing Boston Center
10:50AM 41.4786 -73.2381 316° Northwest 159 183 6,800 360 Climbing Boston Center
10:51AM 41.5242 -73.2775 327° Northwest 165 190 6,900  Climbing Boston Center
10:52AM 41.5697 -73.2975 342° North 170 196 6,900  Level Boston Center
10:53AM 41.6197 -73.3175 343° North 176 203 6,900  Level Boston Center
10:54AM 41.6675 -73.3378 342° North 176 203 6,900  Level Boston Center
10:55AM 41.6983 -73.3797 315° West 164 189 6,900  Level Boston Center
10:56AM 41.7103 -73.4439 284° West 164 189 6,900  Level Boston Center
10:57AM 41.7286 -73.5000 294° West 170 196 6,900  Level Boston Center
10:58AM 41.7467 -73.5586 292° West 170 196 6,900  Level Boston Center
10:59AM 41.7628 -73.6144 291° West 170 196 6,900  Level Boston Center
11:00AM 41.7831 -73.6761 294° West 170 196 6,900  Level Boston Center
11:01AM 41.8011 -73.7294 294° West 170 196 6,900  Level Boston Center
11:02AM 41.8214 -73.7939 293° West 170 196 6,900 -240 Level Boston Center
11:03AM 41.8372 -73.8528 290° West 170 196 6,500 -480 Descending Boston Center
11:04AM 41.8592 -73.9231 293° West 180 207 6,000 -300 Descending Boston Center
11:05AM 41.8772 -73.9819 292° West 180 207 5,900 -60 Descending Boston Center
11:06AM 41.8992 -74.0494 294° West 180 207 5,900  Level Boston Center
11:08AM 41.9173 -74.1230 292° West  Level FlightAware Approximate
11:13AM 42.0258 -74.4636 292° West 176 203 6,000  Level Boston Center
11:14AM 42.0475 -74.5342 292° West 176 203 6,300 360 Climbing Boston Center
11:15AM 42.0452 -74.5449 292° West  Level FlightAware Approximate
11:15AM 42.0694 -74.5936 296° West 176 203 6,800  Level Boston Center
11:16AM 42.0634 -74.6053 292° West  Level FlightAware Approximate
11:16AM 42.0889 -74.6586 292° West 166 191 6,900  Level Boston Center
11:17AM 42.0815 -74.6658 292° West  Level FlightAware Approximate
11:17AM 42.1086 -74.7236 292° West 172 198 6,900  Level Boston Center
11:18AM 42.0996 -74.7263 292° West  Level FlightAware Approximate
11:18AM 42.1200 -74.7800 285° West 186 214 6,900  Level Boston Center
11:19AM 42.1436 -74.8397 298° West 179 206 6,900  Level Boston Center
11:20AM 42.1611 -74.8994 292° West 173 199 6,900  Level Boston Center
11:21AM 42.1783 -74.9644 290° West 173 199 6,900  Level Boston Center
11:22AM 42.2172 -75.0053 322° Northwest 167 192 6,900  Level Boston Center
11:23AM 42.2536 -75.0517 317° Northwest 172 198 6,900  Level Boston Center
11:24AM 42.2922 -75.0925 322° Northwest 177 204 6,900  Level Boston Center
11:25AM 42.3286 -75.1419 315° West 177 204 6,900  Level Boston Center
11:26AM 42.3653 -75.1800 323° Northwest 183 211 6,900  Level Boston Center
11:27AM 42.4014 -75.2322 313° West 183 211 7,000  Climbing Boston Center
11:28AM 42.4419 -75.2817 318° Northwest 188 216 6,900 -60 Descending Boston Center
11:29AM 42.4783 -75.3228 320° Northwest 183 211 6,900  Level Boston Center
11:30AM 42.5169 -75.3697 318° Northwest 183 211 6,900 -60 Level Boston Center
11:31AM 42.5572 -75.4253 315° West 182 209 6,800 -60 Descending Boston Center
11:32AM 42.5956 -75.4694 320° Northwest 183 211 6,800  Level Boston Center
11:33AM 42.6300 -75.5050 323° Northwest 183 211 6,900 -180 Climbing Boston Center
11:34AM 42.6700 -75.5633 313° West 197 227 6,500 -480 Descending Boston Center
11:34AM 42.6761 -75.5722 313° West 193 222 6,300 -420 Descending Boston Center
11:35AM 42.7106 -75.6106 321° Northwest 197 227 6,000 -540 Descending Boston Center
11:36AM 42.7547 -75.6667 317° Northwest 202 232 5,300 -660 Descending Boston Center
11:37AM 42.7992 -75.7172 320° Northwest 203 234 4,700 -600 Descending Boston Center
11:38AM 42.8394 -75.7703 316° Northwest 210 242 4,200 -360 Descending Boston Center
11:39AM 42.8836 -75.8208 320° Northwest 202 232 4,000 -120 Descending Boston Center
11:40AM 42.9319 -75.8803 318° Northwest 208 239 4,000 -60 Level Boston Center
11:41AM 42.9536 -75.9211 306° West 208 239 3,900 -60 Descending Boston Center
11:42AM 42.9803 -76.0050 294° West 179 206 3,900  Level Boston Center
11:43AM 42.9992 -76.0714 291° West 180 207 3,900 -300 Level Boston Center
11:45AM 43.0242 -76.1353 298° West 179 206 3,400 -480 Descending Boston Center
11:45AM 43.0392 -76.1875 291° West 169 194 3,000 -720 Descending Boston Center
11:46AM 43.0817 -76.2214 330° Northwest 187 215 2,100 -720 Descending Boston Center
11:47AM 43.1078 -76.1917 40° Northeast 110 127 1,600 -600 Descending Boston Center
11:48AM 43.1069 -76.1547 92° East 90 104 1,000 -720 Descending Boston Center
11:50AM 43.1000 -76.1000 312° West  Level FlightAware Approximate
11:57AM 43.1112 -76.1063 312° West  Level Estimated
11:58AM 43.1112 -76.1063 312° West  Level Estimated
11:59AM 43.1112 -76.1063 312° West  Level Estimated
12:00PM 43.1112 -76.1063 312° West  Level Estimated
12:01PM 43.1112 -76.1063 312° West  Level Estimated